Time;durP1;ratioP1;P1;durP2;ratioP2;P2;SDS_P1;SDS_P2;PMS_P1;PMS_P2;Temp;Humidity;BMP_temperature;BMP_pressure;BME280_temperature;BME280_humidity;BME280_pressure;Samples;Min_cycle;Max_cycle;Signal;HPM_P1;HPM_P2
2022/01/02 00:00:17;;;;;;;3.53;2.60;;;17.60;99.90;;;17.64;52.88;101516.59;4952613;28;97957;-50
2022/01/02 00:02:51;;;;;;;4.50;3.20;;;17.60;99.90;;;17.67;52.68;101510.25;4958762;28;97012;-51
2022/01/02 00:05:20;;;;;;;3.50;2.20;;;17.70;99.90;;;17.69;52.75;101500.41;4951530;28;97269;-46
2022/01/02 00:08:08;;;;;;;3.00;2.70;;;17.70;99.90;;;17.71;52.90;101486.03;4961103;28;97393;-51
2022/01/02 00:10:47;;;;;;;3.90;2.73;;;17.70;99.90;;;17.74;52.63;101493.00;4958653;28;99745;-50
2022/01/02 00:13:21;;;;;;;2.37;1.90;;;17.80;99.90;;;17.69;52.61;101482.56;4960312;28;96896;-48
2022/01/02 00:15:47;;;;;;;2.37;1.90;;;17.70;99.90;;;17.73;52.58;101477.94;4960663;28;97005;-47
2022/01/02 00:18:15;;;;;;;2.40;1.90;;;17.80;99.90;;;17.73;52.67;101472.59;4958565;28;103844;-50
2022/01/02 00:20:48;;;;;;;3.37;2.73;;;17.70;99.90;;;17.75;51.58;101460.91;4962880;28;97239;-50
2022/01/02 00:23:19;;;;;;;2.57;2.20;;;17.80;99.90;;;17.71;52.72;101474.50;4961686;28;97324;-50
2022/01/02 00:25:52;;;;;;;3.07;2.33;;;17.70;99.90;;;17.76;52.06;101472.44;4963203;28;96916;-51
2022/01/02 00:28:18;;;;;;;2.93;2.53;;;17.80;99.90;;;17.72;52.71;101470.88;4937377;28;101725;-50
2022/01/02 00:30:47;;;;;;;3.87;2.80;;;17.70;99.90;;;17.70;52.65;101462.09;4962310;28;98220;-49
2022/01/02 00:33:13;;;;;;;2.20;2.00;;;17.60;99.90;;;17.65;52.87;101480.09;4971880;28;96937;-46
2022/01/02 00:35:39;;;;;;;3.80;3.40;;;17.60;99.90;;;17.63;51.75;101479.31;4962565;28;98127;-47
2022/01/02 00:38:06;;;;;;;2.67;2.47;;;17.60;99.90;;;17.58;52.95;101490.22;4954658;28;98092;-45
2022/01/02 00:40:40;;;;;;;6.83;3.30;;;17.50;99.90;;;17.55;52.80;101496.59;4963002;28;98554;-47
2022/01/02 00:43:13;;;;;;;3.20;2.90;;;17.40;99.90;;;17.50;52.81;101509.31;4934396;28;96694;-50
2022/01/02 00:45:50;;;;;;;3.80;2.50;;;17.40;99.90;;;17.41;53.16;101500.91;4957760;28;96797;-46
2022/01/02 00:48:29;;;;;;;2.60;2.40;;;17.20;99.90;;;17.35;53.80;101504.72;4935910;28;104228;-48
2022/01/02 00:51:27;;;;;;;2.50;2.30;;;17.10;99.90;;;17.35;53.66;101506.53;4955875;28;98200;-49
2022/01/02 00:53:57;;;;;;;3.07;2.20;;;17.10;99.90;;;17.38;53.75;101504.59;4947389;28;96771;-49
2022/01/02 00:56:28;;;;;;;4.67;3.00;;;17.20;99.90;;;17.40;53.55;101502.72;4957603;28;96875;-50
2022/01/02 00:59:03;;;;;;;3.33;2.23;;;17.30;99.90;;;17.40;53.59;101505.38;4954113;28;97388;-52
2022/01/02 01:01:34;;;;;;;2.50;2.00;;;17.30;99.90;;;17.40;53.56;101508.03;4957130;28;111374;-48
2022/01/02 01:04:02;;;;;;;2.50;2.30;;;17.30;99.90;;;17.39;53.50;101506.31;4954858;28;97441;-53
2022/01/02 01:06:32;;;;;;;2.40;2.20;;;17.30;99.90;;;17.46;53.32;101490.84;4957952;28;100921;-46
2022/01/02 01:09:04;;;;;;;2.07;1.90;;;17.40;99.90;;;17.53;53.26;101495.81;4949369;28;97569;-48
2022/01/02 01:11:30;;;;;;;2.40;2.10;;;17.50;99.90;;;17.57;53.22;101495.66;4951919;28;98001;-46
2022/01/02 01:13:59;;;;;;;2.20;2.00;;;17.50;99.90;;;17.60;53.24;101499.03;4951104;28;97486;-52
2022/01/02 01:16:24;;;;;;;3.27;2.97;;;17.60;99.90;;;17.61;52.90;101505.22;4954536;28;97673;-52
2022/01/02 01:18:50;;;;;;;2.97;2.67;;;17.60;99.90;;;17.57;53.29;101509.00;4950773;28;100553;-50
2022/01/02 01:21:17;;;;;;;3.83;2.87;;;17.50;99.90;;;17.51;53.04;101500.38;4953461;28;97223;-53
2022/01/02 01:23:43;;;;;;;3.07;1.93;;;17.40;99.90;;;17.47;53.47;101493.44;4956387;28;97355;-47
2022/01/02 01:26:10;;;;;;;2.17;1.97;;;17.30;99.90;;;17.44;53.62;101508.75;4947535;28;97374;-49
2022/01/02 01:28:37;;;;;;;2.57;1.80;;;17.20;99.90;;;17.44;53.35;101498.94;4955902;28;100571;-53
2022/01/02 01:31:04;;;;;;;2.30;2.10;;;17.30;99.90;;;17.44;53.29;101504.28;4953250;28;97844;-51
2022/01/02 01:33:30;;;;;;;2.57;2.37;;;17.30;99.90;;;17.44;53.47;101498.94;4973851;28;97496;-46
2022/01/02 01:35:56;;;;;;;3.67;2.93;;;17.30;99.90;;;17.44;52.97;101500.75;4941384;28;97211;-49
2022/01/02 01:38:22;;;;;;;3.17;2.13;;;17.30;99.90;;;17.37;53.50;101502.03;4957152;28;97381;-50
2022/01/02 01:41:03;;;;;;;2.30;2.10;;;17.20;99.90;;;17.44;53.61;101498.94;4958573;28;97288;-48
2022/01/02 01:43:38;;;;;;;2.40;2.10;;;17.30;99.90;;;17.50;53.29;101495.09;4951886;28;98057;-53
2022/01/02 01:46:05;;;;;;;3.13;2.60;;;17.40;99.90;;;17.58;52.55;101484.03;4950739;28;97387;-47
2022/01/02 01:48:31;;;;;;;4.33;3.43;;;17.60;99.90;;;17.58;51.98;101478.69;4960181;28;100389;-49
2022/01/02 01:50:58;;;;;;;4.33;3.30;;;17.60;99.90;;;17.59;52.45;101491.97;4958453;28;97107;-50
2022/01/02 01:53:23;;;;;;;2.73;2.40;;;17.60;99.90;;;17.51;53.25;101495.03;4957370;28;97329;-46
2022/01/02 01:55:50;;;;;;;2.40;2.20;;;17.40;99.90;;;17.49;53.17;101483.56;4951629;28;98145;-55
2022/01/02 01:58:16;;;;;;;2.43;2.23;;;17.40;99.90;;;17.51;52.88;101479.03;4957063;28;102516;-47
2022/01/02 02:00:43;;;;;;;2.53;2.33;;;17.40;99.90;;;17.53;53.19;101477.16;4957833;28;97723;-48
2022/01/02 02:03:09;;;;;;;2.40;2.13;;;17.40;99.90;;;17.55;53.00;101464.59;4940974;28;96910;-51
2022/01/02 02:05:34;;;;;;;2.90;2.23;;;17.50;99.90;;;17.61;52.03;101462.53;4948174;28;98076;-49
2022/01/02 02:08:00;;;;;;;2.40;2.20;;;17.60;99.90;;;17.63;52.73;101471.31;4954036;28;97720;-49
2022/01/02 02:10:34;;;;;;;2.60;2.33;;;17.60;99.90;;;17.65;52.74;101472.09;4973917;28;97278;-52
2022/01/02 02:13:03;;;;;;;2.50;2.23;;;17.60;99.90;;;17.58;52.77;101479.56;4956414;28;97677;-52
2022/01/02 02:15:29;;;;;;;3.17;2.30;;;17.50;99.90;;;17.56;53.09;101462.78;4968286;28;102670;-46
2022/01/02 02:17:55;;;;;;;2.43;2.23;;;17.50;99.90;;;17.58;52.92;101468.88;4970955;28;99370;-47
2022/01/02 02:20:33;;;;;;;2.17;1.97;;;17.50;99.90;;;17.63;53.05;101455.31;4975374;28;97305;-51
2022/01/02 02:23:00;;;;;;;2.27;1.90;;;17.60;99.90;;;17.66;52.91;101457.84;4967787;28;97205;-46
2022/01/02 02:25:33;;;;;;;4.77;3.20;;;17.70;99.90;;;17.68;51.48;101458.63;4983025;28;97448;-46
2022/01/02 02:28:06;;;;;;;4.27;3.03;;;17.70;99.90;;;17.68;52.46;101453.28;4983806;28;96976;-46
2022/01/02 02:30:36;;;;;;;3.63;3.00;;;17.70;99.90;;;17.62;52.75;101453.59;4979311;28;97477;-48
2022/01/02 02:33:06;;;;;;;2.83;2.43;;;17.60;99.90;;;17.59;52.62;101448.41;4969243;28;96861;-46
2022/01/02 02:35:34;;;;;;;2.27;2.03;;;17.50;99.90;;;17.52;53.17;101440.75;4974410;28;97015;-46
2022/01/02 02:38:00;;;;;;;2.57;2.37;;;17.40;99.90;;;17.46;53.29;101443.72;4968457;28;97756;-46
2022/01/02 02:40:29;;;;;;;2.43;2.23;;;17.30;99.90;;;17.38;53.46;101440.59;4976871;28;97082;-46
2022/01/02 02:49:13;;;;;;;2.90;2.20;;;17.00;99.90;;;17.28;53.72;101412.69;4976174;28;98271;-48
2022/01/02 02:51:31;;;;;;;2.27;2.00;;;17.00;99.90;;;17.29;54.04;101398.41;4964717;28;99882;-49
2022/01/02 02:53:57;;;;;;;2.57;2.30;;;17.10;99.90;;;17.35;53.52;101398.06;4971130;28;96805;-46
2022/01/02 02:56:40;;;;;;;2.33;2.13;;;17.20;99.90;;;17.34;53.69;101385.69;4974229;28;96824;-48
2022/01/02 02:59:07;;;;;;;3.67;2.63;;;17.20;99.90;;;17.38;53.52;101395.25;4969758;28;98534;-45
2022/01/02 03:01:33;;;;;;;2.47;2.27;;;17.30;99.90;;;17.39;53.68;101388.97;4972494;28;97540;-47
2022/01/02 03:03:59;;;;;;;2.40;2.20;;;17.30;99.90;;;17.47;53.18;101376.09;4973029;28;97532;-46
2022/01/02 03:06:24;;;;;;;2.60;2.40;;;17.40;99.90;;;17.54;52.96;101369.50;4986331;28;97407;-46
2022/01/02 03:08:52;;;;;;;2.20;2.00;;;17.50;99.90;;;17.60;52.95;101370.09;4973892;28;97628;-50
2022/01/02 03:11:20;;;;;;;2.73;2.10;;;17.60;99.90;;;17.61;52.74;101377.16;4973565;28;97234;-46
2022/01/02 03:13:50;;;;;;;4.37;3.30;;;17.60;99.90;;;17.60;51.82;101391.44;4988775;28;100804;-49
2022/01/02 03:16:17;;;;;;;2.70;2.50;;;17.60;99.90;;;17.51;52.89;101408.81;4971827;28;97235;-46
2022/01/02 03:18:43;;;;;;;2.53;2.17;;;17.40;99.90;;;17.43;53.01;101401.22;4971936;28;96860;-51
2022/01/02 03:21:10;;;;;;;2.40;2.20;;;17.30;99.90;;;17.40;53.52;101397.84;4970297;28;100270;-50
2022/01/02 03:23:37;;;;;;;2.90;2.40;;;17.20;99.90;;;17.40;53.61;101390.72;4969510;28;97005;-52
2022/01/02 03:26:05;;;;;;;2.37;2.17;;;17.20;99.90;;;17.39;53.29;101396.97;4973916;28;97358;-48
2022/01/02 03:28:31;;;;;;;4.27;3.30;;;17.20;99.90;;;17.37;52.72;101393.53;4970926;28;97653;-51
2022/01/02 03:30:56;;;;;;;2.20;2.00;;;17.20;99.90;;;17.36;53.51;101383.81;4974107;28;98376;-47
2022/01/02 03:33:22;;;;;;;2.30;2.10;;;17.20;99.90;;;17.42;53.44;101377.28;4987747;28;96859;-49
2022/01/02 03:35:48;;;;;;;2.23;2.03;;;17.30;99.90;;;17.38;53.43;101397.94;4974789;28;98696;-53
2022/01/02 03:38:14;;;;;;;2.07;1.87;;;17.20;99.90;;;17.38;53.35;101386.41;4970918;28;101943;-46
2022/01/02 03:40:40;;;;;;;2.47;2.27;;;17.20;99.90;;;17.36;53.42;101378.50;4973354;28;97205;-49
2022/01/02 03:43:07;;;;;;;2.60;2.40;;;17.20;99.90;;;17.33;53.38;101389.28;4967522;28;97492;-48
2022/01/02 03:45:33;;;;;;;2.53;2.33;;;17.20;99.90;;;17.30;53.72;101384.13;4969233;28;96998;-48
2022/01/02 03:47:59;;;;;;;1.90;1.80;;;17.10;99.90;;;17.32;53.73;101381.38;4972018;28;97061;-50
2022/01/02 03:50:25;;;;;;;2.23;2.03;;;17.10;99.90;;;17.34;53.40;101371.47;4985277;28;99666;-51
2022/01/02 03:52:51;;;;;;;1.90;1.80;;;17.20;99.90;;;17.39;53.33;101362.31;4968653;28;97272;-49
2022/01/02 03:55:17;;;;;;;2.60;2.37;;;17.30;99.90;;;17.42;53.33;101356.81;4973123;28;97179;-48
2022/01/02 03:57:43;;;;;;;2.20;2.00;;;17.30;99.90;;;17.49;53.29;101349.34;4971259;28;98635;-46
2022/01/02 04:00:12;;;;;;;2.10;1.90;;;17.40;99.90;;;17.56;52.88;101332.06;4969751;28;97190;-50
2022/01/02 04:02:39;;;;;;;3.60;2.70;;;17.50;99.90;;;17.63;52.81;101343.25;4968584;28;102516;-48
2022/01/02 04:05:10;;;;;;;2.23;2.03;;;17.60;99.90;;;17.67;52.50;101319.03;4986799;28;98922;-48
2022/01/02 04:07:36;;;;;;;2.30;2.10;;;17.70;99.90;;;17.68;52.56;101327.88;4972825;28;97902;-47
2022/01/02 04:10:12;;;;;;;2.30;2.10;;;17.70;99.90;;;17.72;52.25;101325.00;4973763;28;97170;-49
2022/01/02 04:12:38;;;;;;;2.70;2.10;;;17.70;99.90;;;17.72;52.22;101321.47;4973456;28;96918;-50
2022/01/02 04:15:07;;;;;;;2.00;1.90;;;17.70;99.90;;;17.74;52.47;101335.56;4971847;28;102646;-50
2022/01/02 04:17:34;;;;;;;2.47;2.13;;;17.70;99.90;;;17.74;52.12;101319.56;4972233;28;97028;-51
2022/01/02 04:20:01;;;;;;;2.37;2.17;;;17.80;99.90;;;17.77;52.32;101324.72;4971110;28;97180;-53
2022/01/02 04:22:27;;;;;;;2.13;2.00;;;17.80;99.90;;;17.78;52.19;101318.44;4974125;28;96557;-46
2022/01/02 04:24:53;;;;;;;2.50;2.30;;;17.80;99.90;;;17.77;52.20;101324.72;4970451;28;97062;-46
2022/01/02 04:27:20;;;;;;;2.57;1.90;;;17.80;99.90;;;17.78;52.15;101311.28;4973523;28;99399;-49
2022/01/02 04:29:46;;;;;;;2.40;2.20;;;17.80;99.90;;;17.79;52.13;101309.47;4968838;28;99417;-48
2022/01/02 04:32:13;;;;;;;2.57;2.37;;;17.80;99.90;;;17.81;52.43;101304.94;4971478;28;109837;-46
2022/01/02 04:34:40;;;;;;;2.70;2.50;;;17.80;99.90;;;17.82;51.60;101309.34;4972200;28;96837;-46
2022/01/02 04:37:06;;;;;;;3.27;2.97;;;17.90;99.90;;;17.76;52.01;101323.00;4969792;28;99820;-46
2022/01/02 04:39:33;;;;;;;3.80;3.13;;;17.80;99.90;;;17.67;51.97;101337.69;4972447;28;96818;-47
2022/01/02 04:41:59;;;;;;;4.03;3.33;;;17.60;99.90;;;17.59;52.85;101347.03;4965685;28;97815;-48
2022/01/02 04:44:26;;;;;;;2.70;2.50;;;17.40;99.90;;;17.49;52.90;101344.88;4967273;28;97579;-50
2022/01/02 04:46:53;;;;;;;3.20;2.43;;;17.30;99.90;;;17.47;53.19;101330.75;4966780;28;97646;-50
2022/01/02 04:49:19;;;;;;;3.33;3.03;;;17.30;99.90;;;17.50;52.99;101327.94;4972724;28;97359;-49
2022/01/02 04:51:45;;;;;;;2.20;2.00;;;17.40;99.90;;;17.54;52.80;101318.81;4972544;28;97044;-45
2022/01/02 04:54:11;;;;;;;2.60;2.40;;;17.50;99.90;;;17.61;52.66;101318.47;4972042;28;97361;-46
2022/01/02 04:56:37;;;;;;;2.40;2.20;;;17.60;99.90;;;17.66;52.47;101305.78;4970255;28;99486;-51
2022/01/02 04:59:03;;;;;;;2.50;2.30;;;17.70;99.90;;;17.70;52.42;101302.00;4974025;28;97071;-50
2022/01/02 05:01:29;;;;;;;2.50;2.23;;;17.70;99.90;;;17.74;52.36;101296.41;4971741;28;97542;-46
2022/01/02 05:03:55;;;;;;;2.80;2.20;;;17.80;99.90;;;17.77;52.29;101293.56;4989099;28;96991;-49
2022/01/02 05:06:20;;;;;;;2.60;2.40;;;17.80;99.90;;;17.79;52.32;101296.13;4973034;28;99389;-46
2022/01/02 05:08:46;;;;;;;3.40;2.20;;;17.90;99.90;;;17.82;52.02;101290.66;4976708;28;99576;-45
2022/01/02 05:11:13;;;;;;;2.83;2.47;;;17.90;99.90;;;17.84;52.12;101283.44;4974250;28;96613;-49
2022/01/02 05:13:40;;;;;;;2.33;2.13;;;17.90;99.90;;;17.87;51.85;101271.72;4968868;28;96918;-50
2022/01/02 05:16:06;;;;;;;2.60;2.40;;;17.90;99.90;;;17.87;52.08;101272.56;4973475;28;99200;-46
2022/01/02 05:18:32;;;;;;;2.63;2.43;;;18.00;99.90;;;17.86;52.08;101276.19;4971933;28;96953;-48
2022/01/02 05:20:58;;;;;;;2.50;2.30;;;17.90;99.90;;;17.86;51.79;101265.50;4968610;28;97135;-48
2022/01/02 05:23:24;;;;;;;3.00;2.70;;;17.90;99.90;;;17.88;51.84;101263.63;4978678;28;96947;-47
2022/01/02 05:25:50;;;;;;;2.60;2.30;;;17.90;99.90;;;17.87;52.03;101261.91;4978136;28;98489;-50
2022/01/02 05:28:16;;;;;;;2.30;2.10;;;17.90;99.90;;;17.83;51.89;101255.03;4978500;28;99886;-46
2022/01/02 05:30:42;;;;;;;2.70;2.27;;;17.90;99.90;;;17.85;51.92;101253.13;4973890;28;109648;-48
2022/01/02 05:33:10;;;;;;;2.43;2.23;;;17.90;99.90;;;17.85;52.05;101242.44;4976115;28;96973;-47
2022/01/02 05:35:37;;;;;;;2.80;2.60;;;17.90;99.90;;;17.88;51.90;101244.94;4974692;28;98804;-50
2022/01/02 05:38:03;;;;;;;2.60;2.40;;;18.00;99.90;;;17.84;51.98;101243.41;4974039;28;97478;-48
2022/01/02 05:40:31;;;;;;;2.57;2.30;;;17.90;99.90;;;17.83;52.14;101242.53;4974603;28;97142;-45
2022/01/02 05:42:59;;;;;;;3.47;3.17;;;17.90;99.90;;;17.79;51.74;101248.13;4974149;28;96992;-47
2022/01/02 05:45:25;;;;;;;4.27;3.17;;;17.80;99.90;;;17.77;52.17;101242.00;4954395;28;99946;-49
2022/01/02 05:47:51;;;;;;;2.63;2.40;;;17.70;99.90;;;17.73;52.05;101232.47;4970659;28;98801;-48
2022/01/02 05:50:18;;;;;;;4.80;3.10;;;17.70;99.90;;;17.65;52.43;101223.97;4972518;28;96789;-49
2022/01/02 05:52:43;;;;;;;3.03;2.70;;;17.60;99.90;;;17.62;52.51;101218.81;4984331;28;97762;-46
2022/01/02 05:55:09;;;;;;;3.40;2.73;;;17.50;99.90;;;17.58;52.57;101218.16;4973389;28;98619;-47
2022/01/02 05:57:36;;;;;;;3.03;2.70;;;17.50;99.90;;;17.55;52.66;101213.84;4977187;28;98959;-47
2022/01/02 06:00:05;;;;;;;3.30;3.00;;;17.50;99.90;;;17.59;52.83;101205.66;4969342;28;97017;-52
2022/01/02 06:02:31;;;;;;;2.90;2.37;;;17.50;99.90;;;17.64;52.24;101190.25;4971875;28;96981;-50
2022/01/02 06:04:58;;;;;;;3.20;2.63;;;17.60;99.90;;;17.68;52.31;101187.38;4971304;28;99711;-47
2022/01/02 06:07:24;;;;;;;3.63;2.97;;;17.70;99.90;;;17.72;52.21;101188.06;4971790;28;97982;-45
2022/01/02 06:09:50;;;;;;;10.27;6.90;;;17.80;99.90;;;17.66;52.26;101183.06;4971965;28;96716;-56
2022/01/02 06:12:16;;;;;;;2.60;2.30;;;17.70;99.90;;;17.66;52.42;101178.56;4975340;28;97046;-50
2022/01/02 06:14:42;;;;;;;3.40;2.80;;;17.60;99.90;;;17.68;52.47;101175.81;4969773;28;100226;-49
2022/01/02 06:17:08;;;;;;;2.93;2.70;;;17.60;99.90;;;17.70;52.68;101173.94;4970673;28;98186;-50
2022/01/02 06:19:33;;;;;;;9.20;5.93;;;17.70;99.90;;;17.64;52.62;101174.25;4972939;28;96825;-49
2022/01/02 06:22:01;;;;;;;4.03;2.90;;;17.60;99.90;;;17.60;52.90;101159.38;4972385;28;96954;-47
2022/01/02 06:24:27;;;;;;;3.63;3.27;;;17.50;99.90;;;17.54;52.98;101173.94;4969539;28;97175;-46
2022/01/02 06:26:53;;;;;;;6.00;5.17;;;17.40;99.90;;;17.46;53.33;101174.34;4971427;28;97232;-51
2022/01/02 06:29:19;;;;;;;6.70;4.77;;;17.30;99.90;;;17.31;53.53;101193.88;4988013;28;97457;-46
2022/01/02 06:31:45;;;;;;;2.90;2.63;;;17.00;99.90;;;17.28;53.71;101191.38;4974502;28;96760;-47
2022/01/02 06:34:11;;;;;;;4.07;3.67;;;17.00;99.90;;;17.22;54.17;101181.91;4974441;28;96832;-51
2022/01/02 06:36:37;;;;;;;4.40;3.60;;;16.90;99.90;;;17.22;54.11;101183.72;4973287;28;97553;-45
2022/01/02 06:39:03;;;;;;;7.37;4.93;;;16.90;99.90;;;17.18;53.70;101183.00;4972983;28;96935;-49
2022/01/02 06:41:29;;;;;;;6.93;3.77;;;16.90;99.90;;;17.19;53.88;101171.41;4972067;28;98097;-47
2022/01/02 06:43:55;;;;;;;3.60;2.70;;;17.00;99.90;;;17.16;54.26;101163.56;4968949;28;99952;-47
2022/01/02 06:46:22;;;;;;;3.13;2.83;;;16.90;99.90;;;17.24;53.93;101160.50;4973840;28;99741;-51
2022/01/02 06:48:48;;;;;;;3.50;3.20;;;17.10;99.90;;;17.34;53.59;101145.69;4974482;28;97037;-49
2022/01/02 06:51:14;;;;;;;3.27;2.77;;;17.20;99.90;;;17.38;53.42;101135.75;4970716;28;97518;-49
2022/01/02 06:53:40;;;;;;;3.00;2.70;;;17.30;99.90;;;17.46;53.39;101138.81;4990511;28;100127;-49
2022/01/02 06:56:06;;;;;;;3.07;2.60;;;17.40;99.90;;;17.48;53.24;101143.09;4984729;28;97178;-48
2022/01/02 06:58:31;;;;;;;3.40;3.10;;;17.50;99.90;;;17.51;52.83;101134.09;4969351;28;97662;-48
2022/01/02 07:00:57;;;;;;;4.13;2.83;;;17.50;99.90;;;17.53;53.14;101127.72;4972643;28;97254;-49
2022/01/02 07:03:27;;;;;;;3.23;2.93;;;17.50;99.90;;;17.57;52.81;101120.41;4969641;28;97576;-47
2022/01/02 07:05:52;;;;;;;2.40;2.20;;;17.50;99.90;;;17.61;52.64;101126.41;4972982;28;97307;-48
2022/01/02 07:08:18;;;;;;;3.00;2.80;;;17.60;99.90;;;17.58;52.19;101122.13;4984660;28;97614;-46
2022/01/02 07:10:44;;;;;;;3.40;3.10;;;17.60;99.90;;;17.61;52.21;101121.94;4970085;28;102022;-48
2022/01/02 07:13:10;;;;;;;3.87;2.87;;;17.60;99.90;;;17.60;52.80;101127.38;4969408;28;103621;-50
2022/01/02 07:15:36;;;;;;;5.40;3.83;;;17.60;99.90;;;17.55;52.51;101124.97;4972749;28;101044;-50
2022/01/02 07:18:02;;;;;;;3.60;2.73;;;17.50;99.90;;;17.57;52.98;101116.88;4972314;28;96818;-49
2022/01/02 07:20:27;;;;;;;4.30;3.17;;;17.50;99.90;;;17.58;53.03;101110.59;4972416;28;97400;-50
2022/01/02 07:22:53;;;;;;;3.87;3.17;;;17.50;99.90;;;17.52;52.68;101136.69;4975539;28;97188;-51
2022/01/02 07:25:19;;;;;;;7.20;4.03;;;17.40;99.90;;;17.53;52.61;101098.38;4972100;28;105008;-48
2022/01/02 07:27:45;;;;;;;3.23;2.93;;;17.50;99.90;;;17.54;52.75;101105.44;4977127;28;97525;-47
2022/01/02 07:30:11;;;;;;;4.20;3.07;;;17.50;99.90;;;17.57;52.38;101099.06;4968541;28;101426;-49
2022/01/02 07:32:37;;;;;;;5.47;3.50;;;17.50;99.90;;;17.57;52.86;101092.88;4974362;28;99648;-47
2022/01/02 07:35:06;;;;;;;3.17;2.80;;;17.60;99.90;;;17.60;52.83;101087.34;4967834;28;97325;-49
2022/01/02 07:37:36;;;;;;;5.17;4.07;;;17.60;99.90;;;17.62;52.52;101069.44;4972525;28;97235;-46
2022/01/02 07:40:04;;;;;;;3.87;3.13;;;17.60;99.90;;;17.62;52.72;101054.28;4970401;28;96854;-51
2022/01/02 07:42:30;;;;;;;3.27;2.73;;;17.70;99.90;;;17.64;52.62;101040.88;4963246;28;97690;-50
2022/01/02 07:44:56;;;;;;;2.77;2.43;;;17.70;99.90;;;17.66;52.58;101028.31;4971927;28;96897;-50
2022/01/02 07:47:22;;;;;;;4.77;3.43;;;17.80;99.90;;;17.72;52.31;101019.97;4966270;28;96862;-47
2022/01/02 07:49:48;;;;;;;4.40;2.93;;;17.80;99.90;;;17.74;52.54;101010.94;4992676;28;97236;-47
2022/01/02 07:52:14;;;;;;;2.73;2.53;;;17.90;99.90;;;17.75;52.49;101006.44;4980344;28;108292;-48
2022/01/02 07:54:39;;;;;;;2.60;2.40;;;17.90;99.90;;;17.80;52.22;100993.72;4965877;28;97251;-50
2022/01/02 07:57:06;;;;;;;3.60;2.70;;;18.00;99.90;;;17.86;51.86;100989.81;4964356;28;98923;-48
2022/01/02 07:59:32;;;;;;;3.37;3.03;;;18.00;99.90;;;17.90;51.78;101016.19;4971753;28;97517;-52
2022/01/02 08:01:58;;;;;;;3.37;2.53;;;18.00;99.90;;;17.86;51.81;101001.34;4955839;28;97880;-52
2022/01/02 08:04:24;;;;;;;2.60;2.40;;;18.00;99.90;;;17.87;51.80;100979.03;4972181;28;97226;-50
2022/01/02 08:06:49;;;;;;;4.80;3.20;;;18.00;99.90;;;17.89;51.83;100970.94;4972911;28;97178;-54
2022/01/02 08:09:15;;;;;;;3.30;3.00;;;18.00;99.90;;;17.89;51.73;100966.44;4969488;28;97084;-50
2022/01/02 08:11:41;;;;;;;3.30;2.67;;;18.00;99.80;;;17.90;51.87;100960.16;4971368;28;97030;-45
2022/01/02 08:14:07;;;;;;;2.60;2.37;;;18.00;99.90;;;17.92;51.82;100960.06;4967809;28;99149;-48
2022/01/02 08:16:34;;;;;;;3.50;2.63;;;18.00;99.90;;;17.90;51.77;100945.97;4975069;28;96793;-48
2022/01/02 08:19:01;;;;;;;2.83;2.60;;;18.00;99.90;;;17.90;52.00;100932.63;4963924;28;97203;-52
2022/01/02 08:21:26;;;;;;;2.93;2.70;;;18.00;99.90;;;17.91;51.85;100931.66;4974078;28;97483;-51
2022/01/02 08:23:52;;;;;;;3.63;2.93;;;18.10;99.90;;;17.92;51.60;100928.91;4971543;28;97730;-52
2022/01/02 08:26:18;;;;;;;2.60;2.37;;;18.00;99.90;;;17.93;51.72;100927.94;4965706;28;96737;-54
2022/01/02 08:28:44;;;;;;;3.47;2.97;;;18.10;99.90;;;17.96;51.16;100930.44;4974239;28;97060;-48
2022/01/02 08:31:10;;;;;;;2.50;2.30;;;18.10;99.40;;;17.94;51.68;100927.00;4968044;28;97550;-49
2022/01/02 08:33:36;;;;;;;3.40;3.00;;;18.10;99.90;;;17.94;51.57;100915.44;4979543;28;99461;-47
2022/01/02 08:36:04;;;;;;;3.17;2.87;;;18.10;99.90;;;17.96;51.57;100898.41;4969332;28;96932;-49
2022/01/02 08:38:30;;;;;;;2.97;2.67;;;18.10;99.90;;;17.99;51.27;100895.56;4978179;28;97098;-51
2022/01/02 08:40:56;;;;;;;3.37;2.50;;;18.10;99.90;;;17.99;51.57;100903.56;4971504;28;98378;-49
2022/01/02 08:43:21;;;;;;;4.27;2.87;;;18.20;99.80;;;18.00;51.39;100912.41;4973525;28;114897;-52
2022/01/02 08:45:47;;;;;;;4.47;3.40;;;18.10;99.50;;;17.98;51.10;100931.19;4976386;28;97311;-46
2022/01/02 08:48:13;;;;;;;3.00;2.13;;;18.10;99.20;;;17.98;51.30;100923.19;4971418;28;97680;-50
2022/01/02 08:50:39;;;;;;;3.50;3.07;;;18.10;99.90;;;17.93;51.09;100925.28;4978302;28;99486;-50
2022/01/02 08:53:05;;;;;;;2.80;2.50;;;18.00;99.40;;;17.93;51.67;100913.72;4970978;28;98268;-48
2022/01/02 08:55:31;;;;;;;2.70;2.40;;;18.00;99.90;;;17.90;51.71;100922.78;4977692;28;97257;-48
2022/01/02 08:57:56;;;;;;;2.60;2.40;;;18.00;99.90;;;17.90;51.66;100920.13;4968924;28;97051;-46
2022/01/02 09:00:24;;;;;;;3.80;2.80;;;18.00;99.70;;;17.83;51.20;100950.81;4987807;28;96885;-46
2022/01/02 09:02:50;;;;;;;3.87;3.00;;;17.80;99.30;;;17.67;51.20;100955.34;4973543;28;97030;-52
2022/01/02 09:05:16;;;;;;;4.07;3.27;;;17.60;99.30;;;17.61;52.14;100961.03;4969973;28;96786;-46
2022/01/02 09:07:41;;;;;;;3.67;2.70;;;17.40;99.90;;;17.57;52.34;100944.38;4987720;28;97278;-49
2022/01/02 09:10:07;;;;;;;5.27;3.83;;;17.40;99.90;;;17.44;50.65;100943.38;4967433;28;98485;-49
2022/01/02 09:12:33;;;;;;;3.67;2.90;;;17.30;99.80;;;17.32;51.25;100944.09;4974390;28;98933;-47
2022/01/02 09:14:59;;;;;;;3.40;2.73;;;17.10;99.90;;;17.32;52.68;100941.44;4966280;28;96882;-46
2022/01/02 09:17:25;;;;;;;3.50;2.97;;;17.10;99.90;;;17.20;51.66;100961.66;4972611;28;102053;-47
2022/01/02 09:19:52;;;;;;;3.10;2.80;;;17.00;99.90;;;17.23;53.50;100945.53;4972362;28;98024;-53
2022/01/02 09:22:19;;;;;;;3.63;2.67;;;17.00;99.90;;;17.24;53.33;100933.91;4973761;28;99923;-48
2022/01/02 09:24:45;;;;;;;2.70;2.50;;;17.10;99.90;;;17.30;53.14;100925.53;4971651;28;97509;-47
2022/01/02 09:27:10;;;;;;;3.13;2.50;;;17.30;99.90;;;17.37;52.85;100932.22;4952250;28;116436;-51
2022/01/02 09:29:36;;;;;;;3.30;2.70;;;17.40;99.90;;;17.43;53.02;100934.53;4976039;28;110440;-50
2022/01/02 09:32:03;;;;;;;3.13;2.53;;;17.50;99.90;;;17.44;52.71;100949.56;4969475;28;97212;-47
2022/01/02 09:34:29;;;;;;;5.03;3.33;;;17.50;99.90;;;17.07;51.86;100950.88;4979665;28;97039;-51
2022/01/02 09:36:55;;;;;;;4.30;3.20;;;17.00;99.90;;;17.11;53.15;100951.56;4970821;28;97547;-50
2022/01/02 09:39:21;;;;;;;3.80;2.97;;;16.90;99.90;;;17.13;53.17;100955.00;4974502;28;97280;-46
2022/01/02 09:41:46;;;;;;;3.03;2.50;;;16.90;99.90;;;17.18;53.60;100950.25;4973629;28;96867;-46
2022/01/02 09:44:12;;;;;;;2.80;2.50;;;17.00;99.90;;;17.24;53.61;100941.91;4965058;28;96809;-51
2022/01/02 09:46:41;;;;;;;2.70;2.50;;;17.10;99.90;;;17.30;53.24;100949.53;4974021;28;97126;-51
2022/01/02 09:49:08;;;;;;;4.13;3.10;;;17.20;99.90;;;17.30;52.78;100936.19;4965316;28;98801;-47
2022/01/02 09:51:34;;;;;;;2.53;2.33;;;17.30;99.90;;;17.36;53.03;100922.53;4976235;28;97270;-51
2022/01/02 09:54:00;;;;;;;3.70;2.17;;;17.30;99.90;;;17.45;52.94;100921.09;4965617;28;99212;-53
2022/01/02 09:56:26;;;;;;;3.30;2.20;;;17.50;99.90;;;17.53;52.76;100918.84;4969583;28;96844;-48
2022/01/02 09:58:52;;;;;;;4.20;3.37;;;17.60;99.90;;;17.60;52.21;100917.50;4968752;28;97504;-49
2022/01/02 10:01:25;;;;;;;3.17;2.87;;;17.70;99.90;;;17.61;52.08;100935.22;4974391;28;97382;-45
2022/01/02 10:03:57;;;;;;;2.40;2.20;;;17.60;99.80;;;17.51;52.63;100950.06;4967771;28;100784;-51
2022/01/02 10:06:46;;;;;;;4.93;3.30;;;17.40;99.90;;;17.51;52.57;100942.94;4970756;28;97144;-45
2022/01/02 10:09:38;;;;;;;2.47;2.17;;;17.40;99.90;;;17.50;51.81;100938.56;4985034;28;97721;-46
2022/01/02 10:12:30;;;;;;;3.00;2.73;;;17.40;99.80;;;17.52;52.57;100949.97;4944145;28;100399;-45
2022/01/02 10:15:15;;;;;;;5.57;3.37;;;17.40;99.90;;;17.45;52.17;100948.63;4945797;28;97917;-46
2022/01/02 10:18:09;;;;;;;4.90;3.20;;;17.30;99.80;;;17.34;52.42;100969.72;4952258;28;99197;-50
2022/01/02 10:20:45;;;;;;;5.43;4.03;;;17.10;99.90;;;17.26;52.74;100966.66;4942725;28;102878;-50